Conway, South Carolina
Current Conditions -  °F | °C
As of 11:35 AM on Tuesday 21 Oct 2014 (Local Time) from KHYW Reporting Station
Haze Haze  
Wind Chill: 72°   Ceiling: Unl
Heat Index: 72°   Visibility: 5mi
Dew Point: 55°   Wind: 0mph
Humidity: 57%   Direction: NA
Pressure: 29.95"   Gusts: NA
Location:  33.83°N, 79.05°W
Report Text: KHYW 211535Z AUTO 00000KT 5SM HZ CLR 22/13 A2995 RMK AO2
Loading
Personal Weather Stations






























Interactive Weather Map
Tropical Storm Tracking
New forecast layout! Learn more

10-Day Weather Forecast

Advertisements
Track Severe Weather on mobile